Time;durP1;ratioP1;P1;durP2;ratioP2;P2;SDS_P1;SDS_P2;PMS_P1;PMS_P2;Temp;Humidity;BMP_temperature;BMP_pressure;BME280_temperature;BME280_humidity;BME280_pressure;Samples;Min_cycle;Max_cycle;Signal;HPM_P1;HPM_P2
2023/08/30 00:01:10;;;;;;;28.00;21.60;;;;;;;17.83;100.00;97818.84;109411;1253;64703;-73
2023/08/30 00:03:36;;;;;;;26.90;21.40;;;;;;;17.80;100.00;97820.64;109383;1253;59463;-73
2023/08/30 00:06:04;;;;;;;23.00;19.60;;;;;;;17.76;100.00;97817.22;109376;1254;59072;-73
2023/08/30 00:08:31;;;;;;;23.20;18.70;;;;;;;17.73;100.00;97818.66;109097;1253;66026;-73
2023/08/30 00:10:58;;;;;;;26.20;20.40;;;;;;;17.72;100.00;97812.60;109378;1253;60348;-73
2023/08/30 00:13:26;;;;;;;22.30;18.40;;;;;;;17.70;100.00;97812.24;109356;1254;63023;-73
2023/08/30 00:15:53;;;;;;;23.90;18.80;;;;;;;17.71;100.00;97809.27;109124;1253;59050;-73
2023/08/30 00:18:19;;;;;;;27.10;19.70;;;;;;;17.73;100.00;97803.14;109344;1253;59012;-73
2023/08/30 00:20:46;;;;;;;25.60;20.30;;;;;;;17.73;100.00;97796.09;109403;1253;66022;-73
2023/08/30 00:23:12;;;;;;;30.20;21.20;;;;;;;17.71;100.00;97793.85;109398;1253;59892;-73
2023/08/30 00:25:39;;;;;;;29.40;20.80;;;;;;;17.66;100.00;97793.84;109362;1253;62855;-73
2023/08/30 00:28:06;;;;;;;28.70;22.10;;;;;;;17.64;100.00;97793.21;109330;1253;59113;-72
2023/08/30 00:30:33;;;;;;;26.10;21.00;;;;;;;17.62;100.00;97788.02;109591;1251;58993;-73
2023/08/30 00:32:59;;;;;;;26.90;20.30;;;;;;;17.62;100.00;97792.56;109680;1250;66440;-72
2023/08/30 00:35:26;;;;;;;31.20;20.60;;;;;;;17.62;100.00;97789.48;109623;1250;60211;-74
2023/08/30 00:37:52;;;;;;;26.50;22.00;;;;;;;17.62;100.00;97789.13;109665;1250;63857;-73
2023/08/30 00:40:23;;;;;;;27.10;21.10;;;;;;;17.62;100.00;97787.17;109636;1251;59187;-72
2023/08/30 00:42:50;;;;;;;30.30;21.40;;;;;;;17.62;100.00;97786.98;109386;1251;59032;-73
2023/08/30 00:45:16;;;;;;;27.10;21.60;;;;;;;17.64;100.00;97795.16;109625;1250;64599;-73
2023/08/30 00:47:43;;;;;;;28.20;21.80;;;;;;;17.65;100.00;97800.91;109632;1250;60227;-72
2023/08/30 00:50:10;;;;;;;28.30;21.10;;;;;;;17.67;100.00;97800.17;109635;1251;64012;-72
2023/08/30 00:52:36;;;;;;;27.10;20.90;;;;;;;17.67;100.00;97797.52;109612;1250;58993;-73
2023/08/30 00:55:03;;;;;;;28.90;21.60;;;;;;;17.67;100.00;97794.15;109618;1250;59017;-72
2023/08/30 00:57:30;;;;;;;27.80;22.40;;;;;;;17.67;100.00;97796.14;109410;1251;66062;-73
2023/08/30 00:59:57;;;;;;;26.10;20.40;;;;;;;17.65;100.00;97797.90;109652;1250;59007;-73
2023/08/30 01:02:24;;;;;;;26.50;21.20;;;;;;;17.64;100.00;97796.63;109596;1250;64057;-73
2023/08/30 01:04:51;;;;;;;28.90;22.20;;;;;;;17.64;100.00;97792.51;109609;1250;58967;-72
2023/08/30 01:07:19;;;;;;;24.70;21.20;;;;;;;17.64;100.00;97788.16;109642;1250;58953;-73
2023/08/30 01:09:46;;;;;;;24.00;19.60;;;;;;;17.64;100.00;97783.34;109648;1250;64514;-72
2023/08/30 01:12:45;;;;;;;23.40;19.60;;;;;;;17.65;100.00;97779.44;109699;1250;58935;-72
2023/08/30 01:15:18;;;;;;;21.70;17.80;;;;;;;17.66;100.00;97778.38;109644;1250;64037;-73
2023/08/30 01:17:51;;;;;;;19.10;16.90;;;;;;;17.66;100.00;97774.94;109600;1251;58950;-72
2023/08/30 01:20:22;;;;;;;17.20;14.70;;;;;;;17.66;100.00;97778.92;109633;1250;58893;-73
2023/08/30 01:23:00;;;;;;;17.70;14.50;;;;;;;17.65;100.00;97782.96;109679;1250;64616;-73
2023/08/30 01:25:43;;;;;;;16.80;15.00;;;;;;;17.67;100.00;97787.14;109702;1250;60134;-73
2023/08/30 01:28:10;;;;;;;17.80;13.80;;;;;;;17.66;100.00;97788.30;109618;1251;62895;-74
2023/08/30 01:30:40;;;;;;;17.60;13.90;;;;;;;17.64;100.00;97785.98;109637;1250;58926;-73
2023/08/30 01:33:08;;;;;;;16.80;14.20;;;;;;;17.63;100.00;97783.95;109620;1250;59303;-73
2023/08/30 01:35:36;;;;;;;15.90;13.10;;;;;;;17.61;100.00;97782.77;109620;1250;65249;-72
2023/08/30 01:38:04;;;;;;;15.60;13.30;;;;;;;17.59;100.00;97779.20;109576;1250;58966;-73
2023/08/30 01:40:37;;;;;;;15.90;13.70;;;;;;;17.57;100.00;97777.86;109375;1251;72958;-73
2023/08/30 01:43:06;;;;;;;13.10;11.70;;;;;;;17.55;100.00;97777.16;109622;1250;59258;-73
2023/08/30 01:45:35;;;;;;;15.80;12.80;;;;;;;17.52;100.00;97784.70;109620;1250;58988;-73
2023/08/30 01:48:04;;;;;;;13.70;11.80;;;;;;;17.50;100.00;97792.81;109431;1250;66115;-72
2023/08/30 01:50:33;;;;;;;13.40;11.40;;;;;;;17.50;100.00;97791.06;109577;1250;60139;-72
2023/08/30 01:53:00;;;;;;;13.00;11.60;;;;;;;17.48;100.00;97790.17;109599;1250;62519;-73
2023/08/30 01:55:29;;;;;;;13.50;11.90;;;;;;;17.45;100.00;97789.41;109587;1250;58954;-73
2023/08/30 01:57:56;;;;;;;13.70;12.30;;;;;;;17.43;100.00;97790.27;109431;1251;59914;-73
2023/08/30 02:00:29;;;;;;;15.10;12.70;;;;;;;17.41;100.00;97793.10;109686;1250;65730;-73
2023/08/30 02:02:57;;;;;;;16.50;14.10;;;;;;;17.40;100.00;97790.01;109633;1250;60172;-73
2023/08/30 02:05:23;;;;;;;15.10;13.40;;;;;;;17.39;100.00;97790.52;109641;1250;63843;-73
2023/08/30 02:08:08;;;;;;;17.80;14.40;;;;;;;17.38;100.00;97793.26;109628;1250;58978;-72
2023/08/30 02:10:37;;;;;;;14.90;12.70;;;;;;;17.40;100.00;97791.35;109681;1250;59022;-73
2023/08/30 02:13:05;;;;;;;15.80;13.30;;;;;;;17.39;100.00;97788.19;109686;1250;66050;-73
2023/08/30 02:15:33;;;;;;;15.90;13.10;;;;;;;17.38;100.00;97793.89;109449;1251;59095;-73
2023/08/30 02:18:01;;;;;;;16.20;13.40;;;;;;;17.38;100.00;97798.19;109636;1250;64082;-73
2023/08/30 02:20:28;;;;;;;17.90;13.70;;;;;;;17.36;100.00;97802.34;109447;1251;59088;-73
2023/08/30 02:22:58;;;;;;;15.90;14.00;;;;;;;17.35;100.00;97799.02;109688;1250;58959;-72
2023/08/30 02:25:25;;;;;;;15.70;13.80;;;;;;;17.33;100.00;97793.44;109662;1250;64831;-73
2023/08/30 02:27:52;;;;;;;17.20;14.00;;;;;;;17.34;100.00;97789.95;109668;1250;58959;-73
2023/08/30 02:30:19;;;;;;;16.40;14.60;;;;;;;17.33;100.00;97780.30;109688;1250;64461;-73
2023/08/30 02:32:45;;;;;;;17.60;15.00;;;;;;;17.32;100.00;97786.02;109605;1250;59071;-73
2023/08/30 02:35:12;;;;;;;19.70;15.60;;;;;;;17.33;100.00;97790.02;109695;1250;59046;-72
2023/08/30 02:37:40;;;;;;;17.80;15.20;;;;;;;17.35;100.00;97778.57;109648;1250;65861;-73
2023/08/30 02:40:07;;;;;;;18.80;14.40;;;;;;;17.36;100.00;97769.83;109677;1250;59176;-73
2023/08/30 02:42:33;;;;;;;17.80;14.40;;;;;;;17.36;100.00;97766.97;109603;1250;62841;-72
2023/08/30 02:45:00;;;;;;;16.20;14.00;;;;;;;17.35;100.00;97776.27;109451;1251;58986;-73
2023/08/30 02:47:26;;;;;;;14.10;12.50;;;;;;;17.34;100.00;97784.00;109587;1250;58861;-72
2023/08/30 02:49:53;;;;;;;15.90;13.70;;;;;;;17.36;100.00;97787.30;109648;1250;65717;-73
2023/08/30 02:52:19;;;;;;;15.40;13.70;;;;;;;17.37;100.00;97783.92;109695;1250;60128;-73
2023/08/30 02:54:46;;;;;;;15.80;13.90;;;;;;;17.36;100.00;97783.12;109445;1251;62861;-72
2023/08/30 02:57:12;;;;;;;18.30;14.40;;;;;;;17.36;100.00;97779.92;109644;1250;58994;-72
2023/08/30 02:59:39;;;;;;;16.00;14.00;;;;;;;17.35;100.00;97780.35;109662;1250;58956;-72
2023/08/30 03:02:05;;;;;;;16.60;14.50;;;;;;;17.33;100.00;97774.08;109681;1250;64815;-73
2023/08/30 03:04:32;;;;;;;18.50;16.40;;;;;;;17.31;100.00;97766.98;109656;1251;60129;-73
2023/08/30 03:06:58;;;;;;;20.60;16.20;;;;;;;17.31;100.00;97759.45;109654;1250;62794;-73
2023/08/30 03:09:25;;;;;;;19.30;16.10;;;;;;;17.30;100.00;97755.08;109588;1250;58974;-73
2023/08/30 03:11:51;;;;;;;24.10;16.20;;;;;;;17.28;100.00;97757.11;109673;1250;58999;-72
2023/08/30 03:14:18;;;;;;;24.40;18.70;;;;;;;17.27;100.00;97758.69;109643;1250;64885;-73
2023/08/30 03:16:46;;;;;;;34.20;22.80;;;;;;;17.27;100.00;97759.02;109661;1250;59963;-73
2023/08/30 03:19:13;;;;;;;34.20;22.70;;;;;;;17.27;100.00;97763.14;109477;1251;63834;-73
2023/08/30 03:21:39;;;;;;;35.60;23.70;;;;;;;17.27;100.00;97769.22;109407;1251;59035;-73
2023/08/30 03:24:06;;;;;;;36.30;23.70;;;;;;;17.26;100.00;97778.73;109657;1250;58977;-72
2023/08/30 03:26:33;;;;;;;34.00;23.90;;;;;;;17.25;100.00;97780.08;109457;1251;66015;-73
2023/08/30 03:28:59;;;;;;;38.10;25.10;;;;;;;17.22;100.00;97776.04;109661;1250;59059;-73
2023/08/30 03:31:26;;;;;;;34.90;23.60;;;;;;;17.20;100.00;97777.23;109652;1250;64070;-73
2023/08/30 03:33:52;;;;;;;30.70;22.70;;;;;;;17.18;100.00;97780.30;109418;1251;59002;-73
2023/08/30 03:36:19;;;;;;;34.30;23.70;;;;;;;17.18;100.00;97776.43;109587;1250;58957;-73
2023/08/30 03:38:46;;;;;;;34.00;23.40;;;;;;;17.17;100.00;97779.02;109631;1250;65708;-72
2023/08/30 03:41:12;;;;;;;33.20;23.60;;;;;;;17.17;100.00;97782.55;109650;1250;59198;-73
2023/08/30 03:43:39;;;;;;;32.90;23.00;;;;;;;17.17;100.00;97786.16;109616;1250;63862;-73
2023/08/30 03:46:06;;;;;;;31.50;23.00;;;;;;;17.17;100.00;97792.83;109626;1250;58956;-72
2023/08/30 03:48:32;;;;;;;35.00;24.70;;;;;;;17.15;100.00;97797.31;109653;1250;58955;-73
2023/08/30 03:50:59;;;;;;;31.40;24.50;;;;;;;17.14;100.00;97804.66;109624;1250;66186;-73
2023/08/30 03:53:25;;;;;;;34.60;24.60;;;;;;;17.11;100.00;97805.86;109642;1250;60157;-73
2023/08/30 03:55:52;;;;;;;31.80;25.20;;;;;;;17.09;100.00;97808.44;109628;1250;64069;-72
2023/08/30 03:58:19;;;;;;;35.70;25.20;;;;;;;17.06;100.00;97808.38;109684;1250;58956;-73
2023/08/30 04:00:46;;;;;;;40.50;27.00;;;;;;;17.05;100.00;97812.08;109629;1250;58985;-73
2023/08/30 04:03:14;;;;;;;47.80;28.90;;;;;;;17.04;100.00;97807.51;109440;1251;65048;-72
2023/08/30 04:05:42;;;;;;;43.60;29.00;;;;;;;17.03;100.00;97800.80;109605;1250;59023;-73
2023/08/30 04:08:09;;;;;;;36.20;26.40;;;;;;;17.01;100.00;97796.02;109586;1250;63948;-73
2023/08/30 04:10:37;;;;;;;36.00;27.10;;;;;;;17.00;100.00;97793.65;109442;1251;59091;-72
2023/08/30 04:13:04;;;;;;;38.80;27.00;;;;;;;17.01;100.00;97800.21;109577;1250;59062;-73
2023/08/30 04:15:37;;;;;;;40.10;28.40;;;;;;;17.00;100.00;97794.86;109662;1250;65689;-73
2023/08/30 04:18:06;;;;;;;41.90;28.10;;;;;;;17.00;100.00;97792.95;109590;1251;69968;-73
2023/08/30 04:20:33;;;;;;;39.50;28.40;;;;;;;17.00;100.00;97784.54;109639;1250;64050;-72
2023/08/30 04:23:01;;;;;;;35.70;26.70;;;;;;;17.01;100.00;97786.89;109626;1250;59005;-73
2023/08/30 04:25:29;;;;;;;37.30;27.80;;;;;;;17.02;100.00;97793.75;109443;1251;59057;-73
2023/08/30 04:27:56;;;;;;;32.40;24.60;;;;;;;17.04;100.00;97797.89;109589;1250;65889;-73
2023/08/30 04:30:23;;;;;;;32.80;24.40;;;;;;;17.04;100.00;97796.91;109669;1250;60092;-72
2023/08/30 04:32:49;;;;;;;34.80;24.60;;;;;;;17.03;100.00;97792.93;109605;1250;64164;-72
2023/08/30 04:35:16;;;;;;;35.40;24.90;;;;;;;17.02;100.00;97795.20;109599;1250;58986;-73
2023/08/30 04:37:43;;;;;;;37.40;25.10;;;;;;;17.02;100.00;97795.20;109619;1251;59053;-73
2023/08/30 04:40:10;;;;;;;41.40;27.30;;;;;;;17.02;100.00;97789.28;109640;1250;66091;-73
2023/08/30 04:42:39;;;;;;;42.70;26.80;;;;;;;17.04;100.00;97790.32;109465;1250;59093;-73
2023/08/30 04:45:07;;;;;;;42.60;27.10;;;;;;;17.04;100.00;97785.30;109627;1250;63956;-73
2023/08/30 04:47:33;;;;;;;41.90;25.40;;;;;;;17.04;100.00;97783.52;109613;1251;58953;-73
2023/08/30 04:50:00;;;;;;;42.00;27.00;;;;;;;17.04;100.00;97786.58;109456;1251;59180;-73
2023/08/30 04:52:26;;;;;;;43.10;25.90;;;;;;;17.03;100.00;97787.76;109678;1250;64819;-73
2023/08/30 04:54:53;;;;;;;46.30;26.40;;;;;;;17.00;100.00;97788.20;109637;1250;58985;-72
2023/08/30 04:57:19;;;;;;;42.70;25.60;;;;;;;17.00;100.00;97794.94;109634;1250;64184;-73
2023/08/30 04:59:46;;;;;;;42.10;25.00;;;;;;;16.99;100.00;97795.45;109576;1250;59241;-73
2023/08/30 05:02:13;;;;;;;44.80;25.90;;;;;;;16.96;100.00;97796.13;109665;1250;59007;-73
2023/08/30 05:04:39;;;;;;;44.50;24.20;;;;;;;16.92;100.00;97798.15;109604;1250;65974;-73
2023/08/30 05:07:06;;;;;;;42.80;24.50;;;;;;;16.88;100.00;97802.73;109439;1251;59034;-73
2023/08/30 05:09:34;;;;;;;50.50;26.20;;;;;;;16.85;100.00;97805.57;109635;1250;64514;-73
2023/08/30 05:12:01;;;;;;;49.50;25.00;;;;;;;16.81;100.00;97804.00;109619;1250;59256;-72
2023/08/30 05:14:28;;;;;;;45.20;22.50;;;;;;;16.79;100.00;97803.40;109618;1250;58999;-72
2023/08/30 05:16:55;;;;;;;42.50;22.40;;;;;;;16.76;100.00;97803.11;109593;1250;64513;-73
2023/08/30 05:19:21;;;;;;;50.00;21.10;;;;;;;16.73;100.00;97803.08;109653;1250;59993;-73
2023/08/30 05:21:51;;;;;;;44.50;23.00;;;;;;;16.70;100.00;97803.05;109618;1250;62848;-73
2023/08/30 05:24:17;;;;;;;40.10;21.40;;;;;;;16.70;100.00;97805.94;109627;1251;58949;-73
2023/08/30 05:26:46;;;;;;;43.20;22.00;;;;;;;16.70;100.00;97806.35;109612;1250;58997;-73
2023/08/30 05:29:14;;;;;;;43.20;23.80;;;;;;;16.69;100.00;97808.02;109628;1251;65970;-72
2023/08/30 05:31:41;;;;;;;54.00;25.70;;;;;;;16.65;100.00;97808.09;109652;1250;59279;-72
2023/08/30 05:34:07;;;;;;;45.70;25.70;;;;;;;16.61;100.00;97809.31;109495;1250;64093;-72
2023/08/30 05:36:34;;;;;;;42.80;25.80;;;;;;;16.59;100.00;97814.47;109541;1253;59257;-72
2023/08/30 05:39:01;;;;;;;43.00;25.40;;;;;;;16.58;100.00;97816.07;109511;1252;59746;-72
2023/08/30 05:41:27;;;;;;;40.80;25.70;;;;;;;16.56;100.00;97814.64;109536;1251;65826;-72
2023/08/30 05:43:54;;;;;;;39.40;25.20;;;;;;;16.57;100.00;97815.40;109498;1252;59978;-73
2023/08/30 05:46:20;;;;;;;37.80;22.30;;;;;;;16.59;100.00;97818.77;109481;1252;59024;-73
2023/08/30 05:48:47;;;;;;;43.10;23.60;;;;;;;16.61;100.00;97819.67;109477;1251;58943;-72
2023/08/30 05:51:13;;;;;;;50.00;28.30;;;;;;;16.61;100.00;97822.77;109583;1251;59043;-72
2023/08/30 05:53:40;;;;;;;48.00;27.70;;;;;;;16.61;100.00;97824.92;109495;1252;59594;-72
2023/08/30 05:56:06;;;;;;;43.80;27.20;;;;;;;16.62;100.00;97827.30;109541;1252;59034;-72
2023/08/30 05:58:33;;;;;;;41.10;23.50;;;;;;;16.62;100.00;97823.71;109500;1253;64031;-73
2023/08/30 06:01:00;;;;;;;33.60;20.60;;;;;;;16.63;100.00;97826.25;109512;1251;58989;-73
2023/08/30 06:03:26;;;;;;;27.50;19.30;;;;;;;16.64;100.00;97828.67;109578;1251;58994;-72
2023/08/30 06:05:53;;;;;;;30.40;18.90;;;;;;;16.64;100.00;97828.11;109479;1253;59635;-72
2023/08/30 06:08:20;;;;;;;28.10;17.90;;;;;;;16.65;100.00;97826.69;109493;1251;59036;-72
2023/08/30 06:10:47;;;;;;;29.10;17.00;;;;;;;16.67;100.00;97826.02;109520;1252;64090;-73
2023/08/30 06:13:13;;;;;;;25.40;16.60;;;;;;;16.66;100.00;97829.16;109479;1251;58959;-72
2023/08/30 06:15:40;;;;;;;27.20;16.00;;;;;;;16.62;100.00;97829.05;109488;1252;58953;-73
2023/08/30 06:18:07;;;;;;;26.80;17.00;;;;;;;16.62;100.00;97831.55;109502;1252;66138;-73
2023/08/30 06:20:34;;;;;;;19.30;13.80;;;;;;;16.63;100.00;97832.31;109570;1251;60168;-72
2023/08/30 06:23:02;;;;;;;21.60;14.30;;;;;;;16.63;100.00;97838.63;109472;1252;64064;-72
2023/08/30 06:25:29;;;;;;;28.50;14.90;;;;;;;16.66;100.00;97843.30;109484;1252;59110;-73
2023/08/30 06:27:58;;;;;;;21.40;13.60;;;;;;;16.69;100.00;97846.05;109535;1251;59062;-73
2023/08/30 06:30:25;;;;;;;18.70;13.90;;;;;;;16.70;100.00;97846.38;109316;1253;65835;-73
2023/08/30 06:32:52;;;;;;;20.30;12.70;;;;;;;16.69;100.00;97845.18;109499;1253;59075;-73
2023/08/30 06:35:18;;;;;;;16.90;12.30;;;;;;;16.69;100.00;97844.45;109521;1251;64564;-73
2023/08/30 06:37:45;;;;;;;17.40;13.10;;;;;;;16.73;100.00;97845.61;109485;1251;59094;-73
2023/08/30 06:40:12;;;;;;;18.30;13.80;;;;;;;16.77;100.00;97842.52;109543;1252;58844;-73
2023/08/30 06:42:39;;;;;;;17.70;13.70;;;;;;;16.84;100.00;97843.83;109512;1252;65728;-73
2023/08/30 06:45:06;;;;;;;18.70;13.80;;;;;;;16.91;100.00;97845.46;109558;1251;60181;-73
2023/08/30 06:47:32;;;;;;;16.70;12.60;;;;;;;16.93;100.00;97851.81;109489;1252;63519;-73
2023/08/30 06:50:00;;;;;;;18.60;12.90;;;;;;;16.89;100.00;97852.85;109488;1251;58968;-73
2023/08/30 06:52:27;;;;;;;15.40;11.60;;;;;;;16.85;100.00;97859.66;109534;1252;58869;-73
2023/08/30 06:54:53;;;;;;;21.30;14.30;;;;;;;16.84;100.00;97860.58;109515;1251;65975;-73
2023/08/30 06:57:21;;;;;;;20.60;14.60;;;;;;;16.86;100.00;97862.17;109548;1252;59378;-73
2023/08/30 06:59:48;;;;;;;15.90;12.70;;;;;;;16.91;100.00;97866.66;109508;1251;65303;-73
2023/08/30 07:02:14;;;;;;;18.90;14.30;;;;;;;16.95;100.00;97867.95;109537;1252;59058;-73
2023/08/30 07:04:41;;;;;;;18.70;14.20;;;;;;;17.02;100.00;97868.38;109323;1252;59009;-73
2023/08/30 07:07:07;;;;;;;18.30;13.80;;;;;;;17.11;100.00;97867.61;109502;1251;66110;-73
2023/08/30 07:09:34;;;;;;;16.30;13.20;;;;;;;17.22;100.00;97865.48;109276;1253;59070;-73
2023/08/30 07:12:00;;;;;;;19.00;12.40;;;;;;;17.34;100.00;97862.64;109556;1252;62867;-72
2023/08/30 07:14:27;;;;;;;15.40;11.40;;;;;;;17.44;100.00;97867.48;109557;1252;59114;-72
2023/08/30 07:16:54;;;;;;;13.70;11.00;;;;;;;17.57;100.00;97863.80;109551;1252;59006;-72
2023/08/30 07:19:20;;;;;;;13.80;10.30;;;;;;;17.75;100.00;97864.86;109538;1252;64856;-72
2023/08/30 07:21:48;;;;;;;12.40;9.60;;;;;;;17.92;100.00;97866.27;109586;1253;58931;-72
2023/08/30 07:24:14;;;;;;;14.20;9.80;;;;;;;18.08;100.00;97870.02;109541;1251;62842;-73
2023/08/30 07:26:41;;;;;;;10.20;8.10;;;;;;;18.28;100.00;97872.40;109503;1251;58983;-73
2023/08/30 07:29:08;;;;;;;9.90;7.80;;;;;;;18.34;100.00;97876.58;109533;1253;58882;-73
2023/08/30 07:31:35;;;;;;;8.90;8.00;;;;;;;18.31;100.00;97876.69;109544;1252;66161;-72
2023/08/30 07:34:02;;;;;;;7.60;6.90;;;;;;;18.40;100.00;97877.27;109526;1252;58962;-72
2023/08/30 07:36:30;;;;;;;8.40;7.00;;;;;;;18.49;100.00;97879.80;109492;1252;64228;-72
2023/08/30 07:38:56;;;;;;;8.70;7.10;;;;;;;18.49;100.00;97882.58;109478;1252;59239;-74
2023/08/30 07:41:23;;;;;;;8.30;7.40;;;;;;;18.50;100.00;97883.68;109553;1252;58941;-73
2023/08/30 07:43:49;;;;;;;9.00;8.00;;;;;;;18.47;100.00;97887.23;109536;1253;65841;-73
2023/08/30 07:46:16;;;;;;;9.90;8.60;;;;;;;18.49;100.00;97891.73;109530;1253;60107;-72
2023/08/30 07:48:42;;;;;;;8.60;7.60;;;;;;;18.49;100.00;97892.24;109547;1252;62519;-72
2023/08/30 07:51:09;;;;;;;9.40;8.10;;;;;;;18.52;100.00;97891.52;109547;1252;59039;-73
2023/08/30 07:53:35;;;;;;;10.90;9.40;;;;;;;18.59;100.00;97892.76;109477;1255;59044;-72
2023/08/30 07:56:02;;;;;;;13.30;11.10;;;;;;;18.65;100.00;97891.41;109543;1252;64734;-72
2023/08/30 07:58:29;;;;;;;13.40;11.80;;;;;;;18.70;100.00;97891.77;109561;1251;60200;-72
2023/08/30 08:00:55;;;;;;;10.70;9.60;;;;;;;18.69;100.00;97891.72;109538;1252;58944;-72
2023/08/30 08:03:22;;;;;;;11.00;9.90;;;;;;;18.65;100.00;97888.42;109494;1252;58947;-72
2023/08/30 08:05:49;;;;;;;10.40;9.00;;;;;;;18.61;100.00;97890.06;109551;1252;59522;-72
2023/08/30 08:08:16;;;;;;;8.80;8.00;;;;;;;18.56;100.00;97891.62;109547;1253;65989;-73
2023/08/30 08:10:43;;;;;;;8.00;6.90;;;;;;;18.51;100.00;97892.81;109524;1252;59056;-72
2023/08/30 08:13:10;;;;;;;8.30;7.50;;;;;;;18.51;100.00;97894.42;109524;1252;64338;-73
2023/08/30 08:15:36;;;;;;;7.80;6.40;;;;;;;18.55;100.00;97898.08;109518;1253;58992;-72
2023/08/30 08:18:03;;;;;;;9.10;6.60;;;;;;;18.52;100.00;97900.37;109609;1252;59046;-73
2023/08/30 08:20:30;;;;;;;8.80;6.70;;;;;;;18.56;100.00;97904.41;109523;1253;65735;-73
2023/08/30 08:22:57;;;;;;;7.70;6.40;;;;;;;18.55;100.00;97903.98;109543;1253;59915;-72
2023/08/30 08:25:24;;;;;;;7.20;5.80;;;;;;;18.47;100.00;97908.31;109566;1252;64026;-72
2023/08/30 08:27:53;;;;;;;7.10;6.40;;;;;;;18.39;100.00;97915.69;109563;1253;58960;-73
2023/08/30 08:30:20;;;;;;;8.30;6.40;;;;;;;18.34;100.00;97913.23;109592;1252;58950;-73
2023/08/30 08:32:50;;;;;;;6.60;6.00;;;;;;;18.34;100.00;97912.89;109306;1251;320847;-74
2023/08/30 08:35:17;;;;;;;;;;;;;;;18.36;100.00;97917.16;109584;1251;58931;-73
2023/08/30 08:37:43;;;;;;;8.60;5.90;;;;;;;18.35;100.00;97920.10;109537;1251;62833;-73
2023/08/30 08:40:10;;;;;;;7.90;5.40;;;;;;;18.36;100.00;97924.02;109582;1251;58953;-73
2023/08/30 08:42:37;;;;;;;10.10;5.50;;;;;;;18.34;100.00;97922.77;109583;1252;59040;-73
2023/08/30 08:45:04;;;;;;;6.50;4.80;;;;;;;18.40;100.00;97923.30;109556;1252;65725;-73
2023/08/30 08:47:31;;;;;;;7.10;4.70;;;;;;;18.51;100.00;97924.03;109150;1251;59981;-74
2023/08/30 08:49:58;;;;;;;5.80;4.10;;;;;;;18.62;100.00;97925.38;109550;1252;63762;-74
2023/08/30 08:52:25;;;;;;;7.60;4.00;;;;;;;18.71;100.00;97923.88;109525;1252;58936;-73
2023/08/30 08:54:52;;;;;;;6.70;4.30;;;;;;;18.85;100.00;97922.43;109237;1252;59419;-73
2023/08/30 08:57:19;;;;;;;9.50;5.00;;;;;;;19.01;100.00;97923.95;109534;1253;64851;-73
2023/08/30 08:59:45;;;;;;;9.20;5.50;;;;;;;19.19;100.00;97926.27;109560;1251;59049;-73
2023/08/30 09:02:14;;;;;;;10.30;5.40;;;;;;;19.33;100.00;97927.81;109535;1253;64071;-73
2023/08/30 09:04:41;;;;;;;6.10;4.60;;;;;;;19.30;100.00;97926.60;109508;1252;59020;-74
2023/08/30 09:07:07;;;;;;;7.80;4.90;;;;;;;19.15;100.00;97928.70;109577;1252;58819;-73
2023/08/30 09:09:34;;;;;;;7.10;4.40;;;;;;;19.03;100.00;97925.81;109510;1253;64784;-73
2023/08/30 09:12:01;;;;;;;8.20;4.80;;;;;;;18.97;100.00;97927.50;109546;1252;60319;-73
2023/08/30 09:14:27;;;;;;;10.10;5.50;;;;;;;18.93;100.00;97928.33;109558;1253;63888;-73
2023/08/30 09:17:00;;;;;;;11.50;6.30;;;;;;;18.91;100.00;97929.88;109431;1252;59122;-73
2023/08/30 09:19:27;;;;;;;8.50;4.90;;;;;;;18.88;100.00;97927.31;109539;1252;59050;-73
2023/08/30 09:21:55;;;;;;;10.20;5.00;;;;;;;18.87;100.00;97928.11;109585;1253;65743;-73
2023/08/30 09:24:22;;;;;;;8.30;5.80;;;;;;;18.78;100.00;97924.27;109499;1253;59049;-73
2023/08/30 09:26:52;;;;;;;8.00;5.40;;;;;;;18.76;100.00;97924.42;109568;1252;63787;-73
2023/08/30 09:29:20;;;;;;;6.20;5.60;;;;;;;18.77;100.00;97928.06;109483;1252;58938;-73
2023/08/30 09:31:55;;;;;;;8.70;5.90;;;;;;;18.82;100.00;97924.58;109603;1251;59016;-72
2023/08/30 09:34:26;;;;;;;8.40;5.50;;;;;;;18.82;100.00;97929.90;109574;1252;65607;-72
2023/08/30 09:36:54;;;;;;;8.40;5.10;;;;;;;18.78;100.00;97930.83;109515;1252;60996;-72
2023/08/30 09:39:21;;;;;;;7.80;5.70;;;;;;;18.73;100.00;97936.74;109537;1252;64053;-74
2023/08/30 09:41:49;;;;;;;7.50;5.80;;;;;;;18.73;100.00;97937.71;109515;1252;59014;-72
2023/08/30 09:44:18;;;;;;;8.70;6.40;;;;;;;18.72;100.00;97940.86;109588;1253;58851;-72
2023/08/30 09:46:46;;;;;;;9.60;5.90;;;;;;;18.67;100.00;97943.55;109577;1253;66049;-72
2023/08/30 09:49:13;;;;;;;6.50;5.90;;;;;;;18.64;100.00;97945.17;109612;1251;59004;-72
2023/08/30 09:51:42;;;;;;;7.00;6.00;;;;;;;18.62;100.00;97943.30;109568;1253;62726;-72
2023/08/30 09:54:17;;;;;;;9.60;6.10;;;;;;;18.62;100.00;97940.65;109559;1254;59000;-72
2023/08/30 09:56:45;;;;;;;9.10;5.90;;;;;;;18.76;100.00;97937.98;109337;1251;59432;-73
2023/08/30 09:59:14;;;;;;;8.80;5.80;;;;;;;18.95;100.00;97938.10;109602;1252;66508;-72
2023/08/30 10:01:43;;;;;;;7.30;5.60;;;;;;;19.11;100.00;97939.08;109598;1252;58982;-73
2023/08/30 10:04:10;;;;;;;9.10;5.90;;;;;;;19.16;100.00;97930.79;109608;1251;64068;-73
2023/08/30 10:06:38;;;;;;;7.80;5.60;;;;;;;19.23;100.00;97927.98;109534;1252;58983;-72
2023/08/30 10:09:07;;;;;;;6.00;5.00;;;;;;;19.28;100.00;97928.77;109618;1251;59027;-73
2023/08/30 10:11:37;;;;;;;7.20;5.30;;;;;;;19.36;100.00;97930.36;109571;1252;65124;-72
2023/08/30 10:14:05;;;;;;;6.90;4.50;;;;;;;19.44;100.00;97925.48;109246;1252;59104;-72
2023/08/30 10:16:36;;;;;;;8.40;5.10;;;;;;;19.38;100.00;97925.30;109418;1253;62536;-72
2023/08/30 10:19:09;;;;;;;7.70;5.00;;;;;;;19.27;100.00;97929.88;109504;1252;59047;-72
2023/08/30 10:21:36;;;;;;;8.00;5.50;;;;;;;19.07;100.00;97932.73;109603;1255;58937;-74
2023/08/30 10:24:05;;;;;;;8.20;5.30;;;;;;;18.99;100.00;97932.06;109528;1252;66879;-72
2023/08/30 10:26:32;;;;;;;7.50;4.90;;;;;;;19.09;100.00;97931.13;109583;1253;59070;-72
2023/08/30 10:29:00;;;;;;;7.80;4.90;;;;;;;19.26;100.00;97935.49;109547;1252;64073;-72
2023/08/30 10:31:27;;;;;;;8.50;5.10;;;;;;;19.40;100.00;97939.67;109482;1253;59019;-73
2023/08/30 10:33:55;;;;;;;6.40;4.80;;;;;;;19.41;100.00;97942.70;109581;1253;58886;-73
2023/08/30 10:36:26;;;;;;;5.90;5.00;;;;;;;19.33;100.00;97939.79;109577;1252;64896;-73
2023/08/30 10:38:54;;;;;;;6.20;4.80;;;;;;;19.17;100.00;97942.23;109549;1253;59027;-73
2023/08/30 10:41:25;;;;;;;9.50;5.10;;;;;;;19.05;100.00;97945.62;109498;1252;62535;-72
2023/08/30 10:43:54;;;;;;;6.90;5.10;;;;;;;18.97;100.00;97944.82;109536;1252;59078;-73
2023/08/30 10:46:31;;;;;;;6.70;4.50;;;;;;;18.99;100.00;97944.44;109629;1252;58983;-72
2023/08/30 10:49:14;;;;;;;7.30;4.40;;;;;;;19.03;100.00;97947.03;109548;1253;64806;-73
2023/08/30 10:51:41;;;;;;;6.00;4.20;;;;;;;19.13;100.00;97949.52;109591;1252;60180;-73
2023/08/30 10:54:12;;;;;;;4.30;3.60;;;;;;;19.21;100.00;97948.14;109512;1252;64093;-72
2023/08/30 10:56:50;;;;;;;5.90;4.00;;;;;;;19.32;100.00;97946.18;109520;1253;59036;-72
2023/08/30 10:59:22;;;;;;;5.30;4.10;;;;;;;19.34;100.00;97946.25;109570;1253;58885;-72
2023/08/30 11:01:53;;;;;;;4.70;3.70;;;;;;;19.28;100.00;97941.55;109225;1252;64509;-72
2023/08/30 11:04:21;;;;;;;5.30;4.60;;;;;;;19.19;100.00;97942.43;109526;1252;59057;-71
2023/08/30 11:06:50;;;;;;;4.20;3.80;;;;;;;19.10;100.00;97938.52;109528;1252;64052;-72
2023/08/30 11:09:21;;;;;;;5.70;4.30;;;;;;;19.04;100.00;97937.97;109514;1253;59054;-72